OSSIPEE R NR EFFINGHAM: From 01/10/2019 00:00 to 01/26/2019 00:00

Date STAGE [FT] FLOW [CFS] PRECIPITATION INCREMENT [IN] AIR TEMPERATURE [DEGF] PRECIPITATION TOTAL [IN]
01/24/2019 03:00 3.46 585.5 -- 32.6 --
01/24/2019 02:00 3.46 585.5 -- 33.0 --
01/24/2019 01:00 3.46 585.5 0.04 32.4 --
01/24/2019 00:00 3.46 585.5 0.03 31.9 --
01/23/2019 23:00 3.46 585.5 0.01 30.3 --
01/23/2019 22:00 3.46 585.5 0.00 29.3 --
01/23/2019 21:00 3.46 585.5 0.00 28.5 --
01/23/2019 20:00 3.46 585.5 0.00 28.5 --
01/23/2019 19:00 3.46 585.5 0.00 28.7 --
01/23/2019 18:00 3.46 585.5 0.00 29.2 --
01/23/2019 17:00 3.46 585.5 0.00 30.3 --
01/23/2019 16:00 3.46 585.5 0.00 31.4 --
01/23/2019 15:00 3.47 589.1 0.00 31.3 --
01/23/2019 14:00 3.47 589.1 0.00 31.0 --
01/23/2019 13:00 3.47 589.1 0.00 29.7 --
01/23/2019 12:00 3.47 589.1 0.00 28.8 --
01/23/2019 11:00 3.47 589.1 0.00 25.4 --
01/23/2019 10:00 3.47 589.1 0.00 21.7 --
01/23/2019 09:00 3.48 592.7 0.00 15.7 --
01/23/2019 08:00 3.48 592.7 0.00 13.6 --
01/23/2019 07:00 3.48 592.7 0.00 12.0 --
01/23/2019 06:00 3.48 592.7 0.00 11.0 --
01/23/2019 05:00 3.48 592.7 0.00 9.6 --
01/23/2019 04:00 3.48 592.7 0.00 10.2 --
01/23/2019 03:00 3.49 596.3 0.00 11.0 --
01/23/2019 02:00 3.49 596.3 0.00 12.6 --
01/23/2019 01:00 3.49 596.3 0.00 13.9 --
01/23/2019 00:00 3.49 596.3 0.00 14.0 0.04
01/22/2019 23:00 3.49 596.3 0.00 13.6 --
01/22/2019 22:00 3.50 600.0 0.00 14.2 --
01/22/2019 21:00 3.50 600.0 0.00 14.4 --
01/22/2019 20:00 3.50 600.0 0.00 15.2 --
01/22/2019 19:00 3.50 600.0 0.00 15.6 --
01/22/2019 18:00 3.50 600.0 0.00 16.1 --
01/22/2019 17:00 3.50 600.0 0.00 18.3 --
01/22/2019 16:00 3.51 603.7 0.00 22.1 --
01/22/2019 15:00 3.51 603.7 0.00 26.5 --
01/22/2019 14:00 3.52 607.5 0.00 26.0 --
01/22/2019 13:00 3.52 607.5 0.00 24.1 --
01/22/2019 12:00 3.52 607.5 0.00 24.5 --
01/22/2019 11:00 3.52 607.5 0.00 22.7 --
01/22/2019 10:00 3.52 607.5 0.00 19.9 --
01/22/2019 09:00 3.53 611.3 0.00 17.3 --
01/22/2019 08:00 3.55 618.8 0.00 5.6 --
01/22/2019 07:00 3.54 615.1 0.00 8.7 --
01/22/2019 06:00 3.53 611.3 0.00 7.8 --
01/22/2019 05:00 3.53 611.3 0.00 6.7 --
01/22/2019 04:00 3.53 611.3 0.00 5.5 --
01/22/2019 03:00 3.53 611.3 0.00 4.1 --
01/22/2019 02:00 3.54 615.1 0.00 4.9 --
01/22/2019 01:00 3.54 615.1 0.00 4.7 --
01/22/2019 00:00 3.55 618.8 0.00 4.4 0.00
01/21/2019 23:00 3.55 618.8 0.00 3.8 --
01/21/2019 22:00 3.55 618.8 0.00 4.1 --
01/21/2019 21:00 3.55 618.8 0.00 3.4 --
01/21/2019 20:00 3.56 622.7 0.00 2.5 --
01/21/2019 19:00 3.55 618.8 0.00 1.2 --
01/21/2019 18:00 3.57 626.5 0.00 -0.0 --
01/21/2019 17:00 3.57 626.5 0.00 0.1 --
01/21/2019 16:00 3.57 626.5 0.00 0.5 --
01/21/2019 15:00 3.57 626.5 0.00 2.1 --
01/21/2019 14:00 3.58 630.3 0.00 2.8 --
01/21/2019 13:00 3.57 626.5 0.00 5.8 --
01/21/2019 12:00 3.58 630.3 0.00 6.6 --
01/21/2019 11:00 3.58 630.3 0.00 6.0 --
01/21/2019 10:00 3.58 630.3 0.00 4.5 --
01/21/2019 09:00 3.58 630.3 0.00 4.2 --
01/21/2019 08:00 3.58 630.3 0.00 3.7 --
01/21/2019 07:00 3.59 634.1 0.00 4.5 --
01/21/2019 06:00 3.59 634.1 0.00 4.9 --
01/21/2019 05:00 3.59 634.1 0.00 4.2 --
01/21/2019 04:00 3.59 634.1 0.00 4.8 --
01/21/2019 03:00 3.59 634.1 0.00 5.1 --
01/21/2019 02:00 3.60 638.0 0.00 4.1 --
01/21/2019 01:00 3.60 638.0 0.00 3.8 --
01/21/2019 00:00 3.60 638.0 0.00 6.5 0.00
01/20/2019 23:00 3.60 638.0 0.00 9.5 --
01/20/2019 22:00 3.61 641.7 0.00 12.5 --
01/20/2019 21:00 3.60 638.0 0.00 16.0 --
01/20/2019 20:00 3.60 638.0 0.00 15.5 --
01/20/2019 19:00 3.61 641.7 0.00 16.6 --
01/20/2019 18:00 3.61 641.7 0.00 16.5 --
01/20/2019 17:00 3.60 638.0 0.00 16.1 --
01/20/2019 16:00 3.61 641.7 0.00 15.2 --
01/20/2019 15:00 3.61 641.7 0.00 14.4 --
01/20/2019 14:00 3.61 641.7 0.00 13.4 --
01/20/2019 13:00 3.61 641.7 0.00 13.2 --
01/20/2019 12:00 3.60 638.0 0.00 13.0 --
01/20/2019 11:00 3.60 638.0 0.00 12.0 --
01/20/2019 10:00 3.60 638.0 0.00 11.8 --
01/20/2019 09:00 3.60 638.0 0.00 11.4 --
01/20/2019 08:00 3.60 638.0 0.00 10.5 --
01/20/2019 07:00 3.60 638.0 0.00 10.0 --
01/20/2019 06:00 3.59 634.1 0.00 9.8 --
01/20/2019 05:00 3.59 634.1 0.00 9.4 --
01/20/2019 04:00 3.59 634.1 0.00 9.2 --
01/20/2019 03:00 3.59 634.1 0.00 10.2 --
01/20/2019 02:00 3.59 634.1 0.00 11.2 --
01/20/2019 01:00 3.59 634.1 0.00 12.1 --
01/20/2019 00:00 3.59 634.1 0.00 12.5 0.00
01/19/2019 23:00 3.60 638.0 0.00 12.5 --
01/19/2019 22:00 3.60 638.0 0.00 13.4 --
01/19/2019 21:00 3.60 638.0 0.00 14.4 --
01/19/2019 20:00 3.60 638.0 0.00 15.2 --
01/19/2019 19:00 3.60 638.0 0.00 16.0 --
01/19/2019 18:00 3.60 638.0 0.00 18.0 --
01/19/2019 17:00 3.60 638.0 0.00 20.9 --
01/19/2019 16:00 3.60 638.0 0.00 22.4 --
01/19/2019 15:00 3.60 638.0 0.00 23.4 --
01/19/2019 14:00 3.60 638.0 0.00 25.1 --
01/19/2019 13:00 3.61 641.7 0.00 24.8 --
01/19/2019 12:00 3.62 645.5 0.00 24.7 --
01/19/2019 11:00 3.62 645.5 0.00 24.3 --
01/19/2019 10:00 3.62 645.5 0.00 21.6 --
01/19/2019 09:00 3.62 645.5 0.00 16.5 --
01/19/2019 08:00 3.63 649.3 0.00 11.4 --
01/19/2019 07:00 3.63 649.3 0.00 10.2 --
01/19/2019 06:00 3.63 649.3 0.00 12.6 --
01/19/2019 05:00 3.63 649.3 0.00 14.0 --
01/19/2019 04:00 3.63 649.3 0.00 14.3 --
01/19/2019 03:00 3.63 649.3 0.00 15.3 --
01/19/2019 02:00 3.64 653.1 0.00 15.4 --
01/19/2019 01:00 3.64 653.1 0.00 16.6 --
01/19/2019 00:00 3.64 653.1 0.00 18.8 0.00
01/18/2019 23:00 3.64 653.1 0.00 20.2 --
01/18/2019 22:00 3.65 656.9 0.00 20.8 --
01/18/2019 21:00 3.65 656.9 0.00 20.8 --
01/18/2019 20:00 3.65 656.9 0.00 21.4 --
01/18/2019 19:00 3.66 660.7 0.00 22.9 --
01/18/2019 18:00 3.66 660.7 0.00 23.3 --
01/18/2019 17:00 3.66 660.7 0.00 23.8 --
01/18/2019 16:00 3.66 660.7 0.00 24.1 --
01/18/2019 15:00 3.66 660.7 0.00 24.3 --
01/18/2019 14:00 3.67 664.5 0.00 24.4 --
01/18/2019 13:00 3.67 664.5 0.00 23.6 --
01/18/2019 12:00 3.67 664.5 0.00 22.0 --
01/18/2019 11:00 3.67 664.5 0.00 19.3 --
01/18/2019 10:00 3.68 668.3 0.00 16.4 --
01/18/2019 09:00 3.68 668.3 0.00 13.9 --
01/18/2019 08:00 3.68 668.3 0.00 12.1 --
01/18/2019 07:00 3.68 668.3 0.00 11.6 --
01/18/2019 06:00 3.68 668.3 0.00 10.1 --
01/18/2019 05:00 3.68 668.3 0.00 10.3 --
01/18/2019 04:00 3.69 672.1 0.00 12.1 --
01/18/2019 03:00 3.69 672.1 0.00 13.3 --
01/18/2019 02:00 3.69 672.1 0.00 13.3 --
01/18/2019 01:00 3.69 672.1 0.00 13.2 --
01/18/2019 00:00 3.70 676.0 0.00 12.5 0.00
01/17/2019 23:00 3.70 676.0 0.00 12.2 --
01/17/2019 22:00 3.70 676.0 0.00 12.1 --
01/17/2019 21:00 3.71 679.9 0.00 11.8 --
01/17/2019 20:00 3.71 679.9 0.00 12.3 --
01/17/2019 19:00 3.71 679.9 0.00 13.1 --
01/17/2019 18:00 3.71 679.9 0.00 13.2 --
01/17/2019 17:00 3.72 683.9 0.00 16.9 --
01/17/2019 16:00 3.72 683.9 0.00 20.0 --
01/17/2019 15:00 3.72 683.9 0.00 23.2 --
01/17/2019 14:00 3.72 683.9 0.00 22.4 --
01/17/2019 13:00 3.73 687.9 0.00 20.5 --
01/17/2019 12:00 3.73 687.9 0.00 17.5 --
01/17/2019 11:00 3.73 687.9 0.00 15.5 --
01/17/2019 10:00 3.73 687.9 0.00 11.5 --
01/17/2019 09:00 3.74 691.9 0.00 8.2 --
01/17/2019 08:00 3.74 691.9 0.00 4.7 --
01/17/2019 07:00 3.74 691.9 0.00 3.5 --
01/17/2019 06:00 3.74 691.9 0.00 4.7 --
01/17/2019 05:00 3.74 691.9 0.00 5.4 --
01/17/2019 04:00 3.75 695.8 0.00 6.3 --
01/17/2019 03:00 3.75 695.8 0.00 8.7 --
01/17/2019 02:00 3.75 695.8 0.00 12.6 --
01/17/2019 01:00 3.76 699.9 0.00 14.0 --
01/17/2019 00:00 3.76 699.9 0.00 16.8 0.00
01/16/2019 23:00 3.77 703.9 0.00 19.8 --
01/16/2019 22:00 3.77 703.9 0.00 24.2 --
01/16/2019 21:00 3.77 703.9 0.00 28.4 --
01/16/2019 20:00 3.77 703.9 0.00 31.2 --
01/16/2019 19:00 3.77 703.9 0.00 30.5 --
01/16/2019 18:00 3.77 703.9 0.00 32.6 --
01/16/2019 17:00 3.77 703.9 0.00 34.1 --
01/16/2019 16:00 3.77 703.9 0.00 35.0 --
01/16/2019 15:00 3.78 707.9 0.00 35.1 --
01/16/2019 14:00 3.78 707.9 0.00 35.2 --
01/16/2019 13:00 3.78 707.9 0.00 33.3 --
01/16/2019 12:00 3.78 707.9 0.00 31.7 --
01/16/2019 11:00 3.78 707.9 0.00 29.3 --
01/16/2019 10:00 3.79 711.9 0.00 28.0 --
01/16/2019 09:00 3.78 707.9 0.00 26.6 --
01/16/2019 08:00 3.79 711.9 0.00 22.7 --
01/16/2019 07:00 3.79 711.9 0.00 21.3 --
01/16/2019 06:00 3.79 711.9 0.00 19.7 --
01/16/2019 05:00 3.79 711.9 0.00 19.7 --
01/16/2019 04:00 3.79 711.9 0.00 21.7 --
01/16/2019 03:00 3.79 711.9 0.00 22.4 --
01/16/2019 02:00 3.80 716.0 0.00 23.8 --
01/16/2019 01:00 3.80 716.0 0.00 23.9 --
01/16/2019 00:00 3.80 716.0 0.00 24.5 0.00
01/15/2019 23:00 3.80 716.0 0.00 23.9 --
01/15/2019 22:00 3.81 720.1 0.00 23.9 --
01/15/2019 21:00 3.81 720.1 0.00 24.0 --
01/15/2019 20:00 3.81 720.1 0.00 23.7 --
01/15/2019 19:00 3.81 720.1 0.00 23.8 --
01/15/2019 18:00 3.81 720.1 0.00 26.1 --
01/15/2019 17:00 3.82 724.3 0.00 28.1 --
01/15/2019 16:00 3.82 724.3 0.00 32.5 --
01/15/2019 15:00 3.82 724.3 0.00 36.1 --
01/15/2019 14:00 3.83 728.5 0.00 34.2 --
01/15/2019 13:00 3.83 728.5 0.00 33.1 --
01/15/2019 12:00 3.83 728.5 0.00 30.1 --
01/15/2019 11:00 3.83 728.5 0.00 28.3 --
01/15/2019 10:00 3.83 728.5 0.00 22.1 --
01/15/2019 09:00 3.83 728.5 0.00 12.5 --
01/15/2019 08:00 3.83 728.5 0.00 6.8 --
01/15/2019 07:00 3.84 732.6 0.00 4.7 --
01/15/2019 06:00 3.84 732.6 0.00 5.0 --
01/15/2019 05:00 3.84 732.6 0.00 5.1 --
01/15/2019 04:00 3.84 732.6 0.00 3.9 --
01/15/2019 03:00 3.85 736.8 0.00 5.0 --
01/15/2019 02:00 3.85 736.8 0.00 5.9 --
01/15/2019 01:00 3.85 736.8 0.00 6.8 --
01/15/2019 00:00 3.86 741.0 0.00 7.8 0.00
01/14/2019 23:00 3.86 741.0 0.00 9.1 --
01/14/2019 22:00 3.86 741.0 0.00 10.6 --
01/14/2019 21:00 3.87 745.3 0.00 12.2 --
01/14/2019 20:00 3.87 745.3 0.00 13.6 --
01/14/2019 19:00 3.88 749.5 0.00 15.3 --
01/14/2019 18:00 3.88 749.5 0.00 17.2 --
01/14/2019 17:00 3.88 749.5 0.00 20.5 --
01/14/2019 16:00 3.88 749.5 0.00 24.3 --
01/14/2019 15:00 3.89 753.7 0.00 29.8 --
01/14/2019 14:00 3.89 753.7 0.00 27.0 --
01/14/2019 13:00 3.89 753.7 0.00 23.9 --
01/14/2019 12:00 3.90 758.0 0.01 19.3 --
01/14/2019 11:00 3.90 758.0 0.00 17.0 --
01/14/2019 10:00 3.90 758.0 0.00 13.4 --
01/14/2019 09:00 3.90 758.0 0.00 4.7 --
01/14/2019 08:00 3.91 762.1 0.00 -3.5 --
01/14/2019 07:00 3.91 762.1 0.00 -3.9 --
01/14/2019 06:00 3.91 762.1 0.00 -3.0 --
01/14/2019 05:00 3.91 762.1 0.00 -2.7 --
01/14/2019 04:00 3.92 766.3 0.00 -1.2 --
01/14/2019 03:00 3.92 766.3 0.00 -0.8 --
01/14/2019 02:00 3.92 766.3 0.00 0.4 --
01/14/2019 01:00 3.93 770.5 0.00 2.0 --
01/14/2019 00:00 3.93 770.5 0.00 2.5 0.01
01/13/2019 23:00 3.93 770.5 0.00 4.1 --
01/13/2019 22:00 3.94 774.7 0.00 5.6 --
01/13/2019 21:00 3.94 774.7 0.00 7.6 --
01/13/2019 20:00 3.94 774.7 0.00 9.2 --
01/13/2019 19:00 3.95 778.9 0.00 10.8 --
01/13/2019 18:00 3.95 778.9 0.00 13.4 --
01/13/2019 17:00 3.95 778.9 0.00 17.4 --
01/13/2019 16:00 3.96 783.1 0.00 22.8 --
01/13/2019 15:00 3.96 783.1 0.00 26.5 --
01/13/2019 14:00 3.96 783.1 0.00 24.4 --
01/13/2019 13:00 3.96 783.1 0.00 22.6 --
01/13/2019 12:00 3.97 787.3 0.00 19.0 --
01/13/2019 11:00 3.97 787.3 0.00 16.0 --
01/13/2019 10:00 3.97 787.3 0.00 12.6 --
01/13/2019 09:00 3.97 787.3 0.00 7.3 --
01/13/2019 08:00 3.98 791.5 0.00 -1.5 --
01/13/2019 07:00 3.98 791.5 0.00 -2.6 --
01/13/2019 06:00 3.98 791.5 0.00 -0.8 --
01/13/2019 05:00 3.98 791.5 0.00 -1.5 --
01/13/2019 04:00 3.99 795.7 0.00 -0.8 --
01/13/2019 03:00 3.99 795.7 0.00 0.2 --
01/13/2019 02:00 3.99 795.7 0.00 0.8 --
01/13/2019 01:00 4.00 800.0 0.00 1.4 --
01/13/2019 00:00 4.00 800.0 0.00 2.1 0.00
01/12/2019 23:00 4.00 800.0 0.00 3.1 --
01/12/2019 22:00 4.01 804.2 0.00 5.0 --
01/12/2019 21:00 4.01 804.2 0.00 7.4 --
01/12/2019 20:00 4.02 808.3 0.00 10.2 --
01/12/2019 19:00 4.02 808.3 0.00 11.6 --
01/12/2019 18:00 4.02 808.3 0.00 14.1 --
01/12/2019 17:00 4.03 812.5 0.00 16.0 --
01/12/2019 16:00 4.03 812.5 0.00 19.1 --
01/12/2019 15:00 4.03 812.5 0.00 25.5 --
01/12/2019 14:00 4.03 812.5 0.00 23.7 --
01/12/2019 13:00 4.04 816.7 0.00 20.8 --
01/12/2019 12:00 4.05 820.9 0.00 19.3 --
01/12/2019 11:00 4.05 820.9 0.00 16.3 --
01/12/2019 10:00 4.06 825.1 0.00 14.4 --
01/12/2019 09:00 4.06 825.1 0.00 3.5 --
01/12/2019 08:00 4.07 829.3 0.00 -3.8 --
01/12/2019 07:00 4.07 829.3 0.00 -4.9 --
01/12/2019 06:00 4.07 829.3 0.00 -3.1 --
01/12/2019 05:00 4.08 833.5 0.00 -2.6 --
01/12/2019 04:00 4.09 837.8 0.00 -3.9 --
01/12/2019 03:00 4.09 837.8 0.00 -3.6 --
01/12/2019 02:00 4.09 837.8 0.00 -0.5 --
01/12/2019 01:00 4.09 837.8 0.00 -2.7 --
01/12/2019 00:00 4.09 837.8 0.00 -2.6 0.00
01/11/2019 23:00 4.09 837.8 0.00 -1.1 --
01/11/2019 22:00 4.09 837.8 0.00 1.1 --
01/11/2019 21:00 4.09 837.8 0.00 2.8 --
01/11/2019 20:00 4.10 842.0 0.00 4.8 --
01/11/2019 19:00 4.10 842.0 0.00 7.1 --
01/11/2019 18:00 4.11 846.3 0.00 9.6 --
01/11/2019 17:00 4.11 846.3 0.00 11.8 --
01/11/2019 16:00 4.12 850.5 0.00 13.9 --
01/11/2019 15:00 4.13 854.8 0.00 18.3 --
01/11/2019 14:00 4.13 854.8 0.00 18.4 --
01/11/2019 13:00 4.10 842.0 0.00 19.4 --
01/11/2019 12:00 4.09 837.8 0.00 20.1 --
01/11/2019 11:00 4.15 863.4 0.00 20.1 --
01/11/2019 10:00 4.10 842.0 0.00 19.4 --
01/11/2019 09:00 4.15 863.4 0.00 16.3 --
01/11/2019 08:00 4.15 863.4 0.00 12.1 --
01/11/2019 07:00 4.16 867.7 0.00 11.7 --
01/11/2019 06:00 4.17 872.0 0.00 13.1 --
01/11/2019 05:00 4.17 872.0 0.00 12.9 --
01/11/2019 04:00 4.17 872.0 0.00 14.2 --
01/11/2019 03:00 4.18 876.3 0.00 15.5 --
01/11/2019 02:00 4.18 876.3 0.00 15.8 --
01/11/2019 01:00 4.19 880.7 0.00 16.9 --
01/11/2019 00:00 4.19 880.7 0.00 17.4 0.00
01/10/2019 23:00 4.18 876.3 0.00 17.9 --
01/10/2019 22:00 4.18 876.3 0.00 18.8 --
01/10/2019 21:00 4.19 880.7 0.00 19.6 --
01/10/2019 20:00 4.19 880.7 0.00 20.8 --
01/10/2019 19:00 4.20 885.0 0.00 21.4 --
01/10/2019 18:00 4.20 885.0 0.00 22.4 --
01/10/2019 17:00 4.21 889.4 0.00 23.9 --
01/10/2019 16:00 4.20 885.0 0.00 25.6 --
01/10/2019 15:00 4.23 898.1 0.00 26.6 --
01/10/2019 14:00 4.21 889.4 0.00 28.7 --
01/10/2019 13:00 4.21 889.4 0.00 30.1 --
01/10/2019 12:00 4.21 889.4 0.00 31.6 --
01/10/2019 11:00 4.21 889.4 0.00 30.4 --
01/10/2019 10:00 4.21 889.4 0.00 30.8 --
01/10/2019 09:00 4.21 889.4 0.00 29.1 --
01/10/2019 08:00 4.21 889.4 0.00 28.0 --
01/10/2019 07:00 4.22 893.7 0.00 28.2 --
01/10/2019 06:00 4.22 893.7 0.00 28.4 --
01/10/2019 05:00 4.22 893.7 0.00 28.9 --
01/10/2019 04:00 -- -- -- -- --
01/10/2019 03:00 -- -- -- -- --
01/10/2019 02:00 -- -- -- -- --
01/10/2019 01:00 -- -- -- -- --
01/10/2019 00:00 -- -- -- -- 0.00